sensor_id;sensor_type;location;lat;lon;timestamp;P1;durP1;ratioP1;P2;durP2;ratioP2
43457;SDS011;29046;54.184;18.680;2023-04-29T00:01:39;27.85;;;10.57;;
43457;SDS011;29046;54.184;18.680;2023-04-29T00:04:06;22.70;;;10.80;;
43457;SDS011;29046;54.184;18.680;2023-04-29T00:06:35;14.18;;;7.25;;
43457;SDS011;29046;54.184;18.680;2023-04-29T00:09:02;17.17;;;7.75;;
43457;SDS011;29046;54.184;18.680;2023-04-29T00:11:30;26.42;;;9.88;;
43457;SDS011;29046;54.184;18.680;2023-04-29T00:13:57;17.80;;;9.60;;
43457;SDS011;29046;54.184;18.680;2023-04-29T00:16:25;17.63;;;7.65;;
43457;SDS011;29046;54.184;18.680;2023-04-29T00:18:52;15.60;;;8.48;;
43457;SDS011;29046;54.184;18.680;2023-04-29T00:21:20;17.15;;;7.88;;
43457;SDS011;29046;54.184;18.680;2023-04-29T00:23:47;18.05;;;7.03;;
43457;SDS011;29046;54.184;18.680;2023-04-29T00:26:15;12.45;;;6.47;;
43457;SDS011;29046;54.184;18.680;2023-04-29T00:28:42;13.95;;;6.70;;
43457;SDS011;29046;54.184;18.680;2023-04-29T00:31:10;12.13;;;6.18;;
43457;SDS011;29046;54.184;18.680;2023-04-29T00:33:38;12.50;;;5.40;;
43457;SDS011;29046;54.184;18.680;2023-04-29T00:36:06;12.63;;;5.45;;
43457;SDS011;29046;54.184;18.680;2023-04-29T00:38:34;20.15;;;5.90;;
43457;SDS011;29046;54.184;18.680;2023-04-29T00:41:02;14.13;;;5.97;;
43457;SDS011;29046;54.184;18.680;2023-04-29T00:43:30;12.35;;;4.97;;
43457;SDS011;29046;54.184;18.680;2023-04-29T00:45:58;12.40;;;5.63;;
43457;SDS011;29046;54.184;18.680;2023-04-29T00:48:25;11.60;;;5.20;;
43457;SDS011;29046;54.184;18.680;2023-04-29T00:50:53;15.75;;;6.57;;
43457;SDS011;29046;54.184;18.680;2023-04-29T00:53:21;12.45;;;5.95;;
43457;SDS011;29046;54.184;18.680;2023-04-29T00:55:49;16.88;;;5.82;;
43457;SDS011;29046;54.184;18.680;2023-04-29T00:58:17;10.88;;;5.15;;
43457;SDS011;29046;54.184;18.680;2023-04-29T01:00:45;15.45;;;5.85;;
43457;SDS011;29046;54.184;18.680;2023-04-29T01:03:14;14.38;;;6.70;;
43457;SDS011;29046;54.184;18.680;2023-04-29T01:05:43;17.13;;;6.45;;
43457;SDS011;29046;54.184;18.680;2023-04-29T01:11:07;11.18;;;6.00;;
43457;SDS011;29046;54.184;18.680;2023-04-29T01:13:42;13.18;;;5.82;;
43457;SDS011;29046;54.184;18.680;2023-04-29T01:18:49;13.07;;;5.70;;
43457;SDS011;29046;54.184;18.680;2023-04-29T01:21:19;13.30;;;5.75;;
43457;SDS011;29046;54.184;18.680;2023-04-29T01:23:47;16.77;;;6.15;;
43457;SDS011;29046;54.184;18.680;2023-04-29T01:26:21;13.90;;;7.30;;
43457;SDS011;29046;54.184;18.680;2023-04-29T01:28:52;19.58;;;7.97;;
43457;SDS011;29046;54.184;18.680;2023-04-29T01:31:25;13.98;;;7.25;;
43457;SDS011;29046;54.184;18.680;2023-04-29T01:39:26;12.13;;;5.68;;
43457;SDS011;29046;54.184;18.680;2023-04-29T01:41:58;9.90;;;5.22;;
43457;SDS011;29046;54.184;18.680;2023-04-29T01:44:29;15.57;;;6.18;;
43457;SDS011;29046;54.184;18.680;2023-04-29T01:46:57;13.88;;;5.85;;
43457;SDS011;29046;54.184;18.680;2023-04-29T01:49:28;12.98;;;6.28;;
43457;SDS011;29046;54.184;18.680;2023-04-29T01:51:56;14.27;;;5.78;;
43457;SDS011;29046;54.184;18.680;2023-04-29T01:54:24;12.68;;;5.43;;
43457;SDS011;29046;54.184;18.680;2023-04-29T01:56:51;11.88;;;5.78;;
43457;SDS011;29046;54.184;18.680;2023-04-29T01:59:19;14.65;;;5.78;;
43457;SDS011;29046;54.184;18.680;2023-04-29T02:01:47;12.20;;;6.32;;
43457;SDS011;29046;54.184;18.680;2023-04-29T02:04:14;11.77;;;5.75;;
43457;SDS011;29046;54.184;18.680;2023-04-29T02:06:42;10.88;;;5.28;;
43457;SDS011;29046;54.184;18.680;2023-04-29T02:09:10;15.07;;;6.22;;
43457;SDS011;29046;54.184;18.680;2023-04-29T02:11:37;9.48;;;4.38;;
43457;SDS011;29046;54.184;18.680;2023-04-29T02:14:04;13.93;;;5.35;;
43457;SDS011;29046;54.184;18.680;2023-04-29T02:16:32;9.48;;;5.22;;
43457;SDS011;29046;54.184;18.680;2023-04-29T02:18:59;16.08;;;5.22;;
43457;SDS011;29046;54.184;18.680;2023-04-29T02:21:27;16.90;;;8.68;;
43457;SDS011;29046;54.184;18.680;2023-04-29T02:23:54;18.33;;;6.82;;
43457;SDS011;29046;54.184;18.680;2023-04-29T02:26:22;9.75;;;5.10;;
43457;SDS011;29046;54.184;18.680;2023-04-29T02:28:49;15.90;;;8.77;;
43457;SDS011;29046;54.184;18.680;2023-04-29T02:31:18;29.05;;;14.18;;
43457;SDS011;29046;54.184;18.680;2023-04-29T02:33:45;20.88;;;11.23;;
43457;SDS011;29046;54.184;18.680;2023-04-29T02:36:13;26.88;;;12.35;;
43457;SDS011;29046;54.184;18.680;2023-04-29T02:38:40;18.25;;;10.50;;
43457;SDS011;29046;54.184;18.680;2023-04-29T02:41:08;21.75;;;13.80;;
43457;SDS011;29046;54.184;18.680;2023-04-29T02:43:35;34.88;;;21.20;;
43457;SDS011;29046;54.184;18.680;2023-04-29T02:46:02;27.23;;;16.85;;
43457;SDS011;29046;54.184;18.680;2023-04-29T02:48:30;26.30;;;17.77;;
43457;SDS011;29046;54.184;18.680;2023-04-29T02:50:58;23.88;;;15.00;;
43457;SDS011;29046;54.184;18.680;2023-04-29T02:53:25;23.35;;;14.98;;
43457;SDS011;29046;54.184;18.680;2023-04-29T02:55:53;20.80;;;12.52;;
43457;SDS011;29046;54.184;18.680;2023-04-29T02:58:21;14.95;;;9.60;;
43457;SDS011;29046;54.184;18.680;2023-04-29T03:00:48;13.82;;;8.68;;
43457;SDS011;29046;54.184;18.680;2023-04-29T03:03:16;13.65;;;7.28;;
43457;SDS011;29046;54.184;18.680;2023-04-29T03:05:44;16.23;;;8.98;;
43457;SDS011;29046;54.184;18.680;2023-04-29T03:08:11;15.25;;;7.97;;
43457;SDS011;29046;54.184;18.680;2023-04-29T03:10:38;16.35;;;7.18;;
43457;SDS011;29046;54.184;18.680;2023-04-29T03:13:07;15.05;;;6.60;;
43457;SDS011;29046;54.184;18.680;2023-04-29T03:15:34;9.73;;;5.35;;
43457;SDS011;29046;54.184;18.680;2023-04-29T03:18:02;19.05;;;6.28;;
43457;SDS011;29046;54.184;18.680;2023-04-29T03:20:30;15.38;;;6.93;;
43457;SDS011;29046;54.184;18.680;2023-04-29T03:22:58;15.43;;;6.65;;
43457;SDS011;29046;54.184;18.680;2023-04-29T03:25:26;14.07;;;6.97;;
43457;SDS011;29046;54.184;18.680;2023-04-29T03:27:53;20.98;;;7.95;;
43457;SDS011;29046;54.184;18.680;2023-04-29T03:30:21;14.70;;;7.10;;
43457;SDS011;29046;54.184;18.680;2023-04-29T03:32:48;18.90;;;7.25;;
43457;SDS011;29046;54.184;18.680;2023-04-29T03:35:16;17.33;;;8.05;;
43457;SDS011;29046;54.184;18.680;2023-04-29T03:37:43;18.35;;;7.45;;
43457;SDS011;29046;54.184;18.680;2023-04-29T03:40:11;27.20;;;8.95;;
43457;SDS011;29046;54.184;18.680;2023-04-29T03:42:39;16.98;;;8.07;;
43457;SDS011;29046;54.184;18.680;2023-04-29T03:45:07;25.58;;;9.02;;
43457;SDS011;29046;54.184;18.680;2023-04-29T03:47:34;20.90;;;8.15;;
43457;SDS011;29046;54.184;18.680;2023-04-29T03:50:02;16.17;;;6.93;;
43457;SDS011;29046;54.184;18.680;2023-04-29T03:52:29;18.23;;;8.02;;
43457;SDS011;29046;54.184;18.680;2023-04-29T03:54:57;14.52;;;7.38;;
43457;SDS011;29046;54.184;18.680;2023-04-29T03:57:24;14.40;;;6.55;;
43457;SDS011;29046;54.184;18.680;2023-04-29T03:59:52;11.82;;;6.45;;
43457;SDS011;29046;54.184;18.680;2023-04-29T04:02:20;12.75;;;7.40;;
43457;SDS011;29046;54.184;18.680;2023-04-29T04:04:48;18.38;;;6.63;;
43457;SDS011;29046;54.184;18.680;2023-04-29T04:07:15;14.40;;;6.65;;
43457;SDS011;29046;54.184;18.680;2023-04-29T04:09:43;13.27;;;6.65;;
43457;SDS011;29046;54.184;18.680;2023-04-29T04:12:11;16.73;;;6.82;;
43457;SDS011;29046;54.184;18.680;2023-04-29T04:14:38;17.45;;;6.72;;
43457;SDS011;29046;54.184;18.680;2023-04-29T04:17:06;14.27;;;5.70;;
43457;SDS011;29046;54.184;18.680;2023-04-29T04:19:33;13.68;;;6.93;;
43457;SDS011;29046;54.184;18.680;2023-04-29T04:22:02;12.23;;;6.47;;
43457;SDS011;29046;54.184;18.680;2023-04-29T04:24:30;17.38;;;6.82;;
43457;SDS011;29046;54.184;18.680;2023-04-29T04:26:59;15.57;;;7.18;;
43457;SDS011;29046;54.184;18.680;2023-04-29T04:29:27;15.10;;;7.15;;
43457;SDS011;29046;54.184;18.680;2023-04-29T04:31:55;16.10;;;7.07;;
43457;SDS011;29046;54.184;18.680;2023-04-29T04:34:22;13.05;;;6.72;;
43457;SDS011;29046;54.184;18.680;2023-04-29T04:36:50;14.30;;;6.30;;
43457;SDS011;29046;54.184;18.680;2023-04-29T04:39:18;17.70;;;7.65;;
43457;SDS011;29046;54.184;18.680;2023-04-29T04:41:45;12.35;;;6.85;;
43457;SDS011;29046;54.184;18.680;2023-04-29T04:44:12;14.90;;;6.40;;
43457;SDS011;29046;54.184;18.680;2023-04-29T04:46:40;16.17;;;7.30;;
43457;SDS011;29046;54.184;18.680;2023-04-29T04:49:08;15.95;;;6.60;;
43457;SDS011;29046;54.184;18.680;2023-04-29T04:51:36;13.80;;;6.40;;
43457;SDS011;29046;54.184;18.680;2023-04-29T04:54:03;22.20;;;7.90;;
43457;SDS011;29046;54.184;18.680;2023-04-29T04:56:31;21.10;;;7.75;;
43457;SDS011;29046;54.184;18.680;2023-04-29T04:58:58;23.67;;;7.65;;
43457;SDS011;29046;54.184;18.680;2023-04-29T05:01:26;26.30;;;8.05;;
43457;SDS011;29046;54.184;18.680;2023-04-29T05:03:53;28.95;;;6.68;;
43457;SDS011;29046;54.184;18.680;2023-04-29T05:06:21;19.85;;;7.90;;
43457;SDS011;29046;54.184;18.680;2023-04-29T05:08:48;13.43;;;6.45;;
43457;SDS011;29046;54.184;18.680;2023-04-29T05:11:16;14.82;;;6.63;;
43457;SDS011;29046;54.184;18.680;2023-04-29T05:13:44;16.60;;;6.15;;
43457;SDS011;29046;54.184;18.680;2023-04-29T05:16:11;20.13;;;6.28;;
43457;SDS011;29046;54.184;18.680;2023-04-29T05:18:39;15.68;;;5.75;;
43457;SDS011;29046;54.184;18.680;2023-04-29T05:21:09;8.25;;;4.65;;
43457;SDS011;29046;54.184;18.680;2023-04-29T05:23:37;11.05;;;5.22;;
43457;SDS011;29046;54.184;18.680;2023-04-29T05:26:04;10.32;;;5.05;;
43457;SDS011;29046;54.184;18.680;2023-04-29T05:28:31;10.13;;;5.30;;
43457;SDS011;29046;54.184;18.680;2023-04-29T05:30:59;14.30;;;5.47;;
43457;SDS011;29046;54.184;18.680;2023-04-29T05:33:27;14.48;;;6.03;;
43457;SDS011;29046;54.184;18.680;2023-04-29T05:35:54;12.13;;;6.22;;
43457;SDS011;29046;54.184;18.680;2023-04-29T05:38:21;16.20;;;6.55;;
43457;SDS011;29046;54.184;18.680;2023-04-29T05:40:54;11.02;;;6.43;;
43457;SDS011;29046;54.184;18.680;2023-04-29T05:43:22;11.35;;;6.35;;
43457;SDS011;29046;54.184;18.680;2023-04-29T05:45:49;10.88;;;5.63;;
43457;SDS011;29046;54.184;18.680;2023-04-29T05:48:17;13.30;;;5.93;;
43457;SDS011;29046;54.184;18.680;2023-04-29T05:50:44;15.25;;;6.50;;
43457;SDS011;29046;54.184;18.680;2023-04-29T05:53:13;14.00;;;5.65;;
43457;SDS011;29046;54.184;18.680;2023-04-29T05:55:41;14.38;;;6.00;;
43457;SDS011;29046;54.184;18.680;2023-04-29T05:58:11;12.80;;;5.35;;
43457;SDS011;29046;54.184;18.680;2023-04-29T06:00:40;10.75;;;5.90;;
43457;SDS011;29046;54.184;18.680;2023-04-29T06:03:09;11.45;;;5.82;;
43457;SDS011;29046;54.184;18.680;2023-04-29T06:05:38;13.60;;;6.20;;
43457;SDS011;29046;54.184;18.680;2023-04-29T06:08:06;15.35;;;6.25;;
43457;SDS011;29046;54.184;18.680;2023-04-29T06:10:33;13.10;;;5.45;;
43457;SDS011;29046;54.184;18.680;2023-04-29T06:13:02;15.10;;;6.20;;
43457;SDS011;29046;54.184;18.680;2023-04-29T06:15:29;16.67;;;6.03;;
43457;SDS011;29046;54.184;18.680;2023-04-29T06:17:58;15.05;;;5.70;;
43457;SDS011;29046;54.184;18.680;2023-04-29T06:20:25;10.70;;;6.20;;
43457;SDS011;29046;54.184;18.680;2023-04-29T06:22:53;11.25;;;6.07;;
43457;SDS011;29046;54.184;18.680;2023-04-29T06:25:20;12.80;;;6.60;;
43457;SDS011;29046;54.184;18.680;2023-04-29T06:27:48;13.75;;;7.53;;
43457;SDS011;29046;54.184;18.680;2023-04-29T06:30:15;16.30;;;8.10;;
43457;SDS011;29046;54.184;18.680;2023-04-29T06:32:43;17.27;;;8.15;;
43457;SDS011;29046;54.184;18.680;2023-04-29T06:35:11;15.65;;;7.68;;
43457;SDS011;29046;54.184;18.680;2023-04-29T06:37:38;16.30;;;7.30;;
43457;SDS011;29046;54.184;18.680;2023-04-29T06:40:06;16.55;;;6.97;;
43457;SDS011;29046;54.184;18.680;2023-04-29T06:42:34;13.70;;;7.20;;
43457;SDS011;29046;54.184;18.680;2023-04-29T06:45:02;12.23;;;6.82;;
43457;SDS011;29046;54.184;18.680;2023-04-29T06:47:30;13.98;;;7.15;;
43457;SDS011;29046;54.184;18.680;2023-04-29T06:49:58;17.38;;;7.40;;
43457;SDS011;29046;54.184;18.680;2023-04-29T06:52:26;16.77;;;8.55;;
43457;SDS011;29046;54.184;18.680;2023-04-29T06:54:53;19.63;;;7.85;;
43457;SDS011;29046;54.184;18.680;2023-04-29T06:57:20;13.30;;;7.40;;
43457;SDS011;29046;54.184;18.680;2023-04-29T06:59:48;15.13;;;7.65;;
43457;SDS011;29046;54.184;18.680;2023-04-29T07:02:15;22.52;;;8.88;;
43457;SDS011;29046;54.184;18.680;2023-04-29T07:04:43;11.20;;;7.00;;
43457;SDS011;29046;54.184;18.680;2023-04-29T07:07:11;16.52;;;8.98;;
43457;SDS011;29046;54.184;18.680;2023-04-29T07:09:38;13.65;;;7.65;;
43457;SDS011;29046;54.184;18.680;2023-04-29T07:12:06;13.05;;;7.70;;
43457;SDS011;29046;54.184;18.680;2023-04-29T07:14:33;19.08;;;6.88;;
43457;SDS011;29046;54.184;18.680;2023-04-29T07:17:03;18.63;;;8.07;;
43457;SDS011;29046;54.184;18.680;2023-04-29T07:19:30;11.88;;;7.38;;
43457;SDS011;29046;54.184;18.680;2023-04-29T07:21:58;11.60;;;6.88;;
43457;SDS011;29046;54.184;18.680;2023-04-29T07:24:25;16.23;;;7.78;;
43457;SDS011;29046;54.184;18.680;2023-04-29T07:26:53;14.57;;;7.65;;
43457;SDS011;29046;54.184;18.680;2023-04-29T07:29:21;15.23;;;8.18;;
43457;SDS011;29046;54.184;18.680;2023-04-29T07:31:49;12.57;;;7.90;;
43457;SDS011;29046;54.184;18.680;2023-04-29T07:34:16;11.48;;;7.88;;
43457;SDS011;29046;54.184;18.680;2023-04-29T07:36:44;14.13;;;7.90;;
43457;SDS011;29046;54.184;18.680;2023-04-29T07:39:11;14.13;;;8.80;;
43457;SDS011;29046;54.184;18.680;2023-04-29T07:41:40;14.68;;;8.25;;
43457;SDS011;29046;54.184;18.680;2023-04-29T07:44:08;12.88;;;8.02;;
43457;SDS011;29046;54.184;18.680;2023-04-29T07:46:36;13.50;;;8.93;;
43457;SDS011;29046;54.184;18.680;2023-04-29T07:49:03;18.98;;;8.48;;
43457;SDS011;29046;54.184;18.680;2023-04-29T07:51:32;16.00;;;10.07;;
43457;SDS011;29046;54.184;18.680;2023-04-29T07:53:59;20.05;;;9.00;;
43457;SDS011;29046;54.184;18.680;2023-04-29T07:56:27;22.05;;;9.02;;
43457;SDS011;29046;54.184;18.680;2023-04-29T07:58:54;16.52;;;9.10;;
43457;SDS011;29046;54.184;18.680;2023-04-29T08:01:22;15.18;;;8.85;;
43457;SDS011;29046;54.184;18.680;2023-04-29T08:03:49;13.52;;;9.18;;
43457;SDS011;29046;54.184;18.680;2023-04-29T08:06:17;17.85;;;9.75;;
43457;SDS011;29046;54.184;18.680;2023-04-29T08:08:47;18.83;;;9.15;;
43457;SDS011;29046;54.184;18.680;2023-04-29T08:11:18;15.35;;;8.63;;
43457;SDS011;29046;54.184;18.680;2023-04-29T08:13:46;22.38;;;8.30;;
43457;SDS011;29046;54.184;18.680;2023-04-29T08:16:14;14.13;;;8.60;;
43457;SDS011;29046;54.184;18.680;2023-04-29T08:18:42;13.90;;;8.73;;
43457;SDS011;29046;54.184;18.680;2023-04-29T08:21:09;15.32;;;9.70;;
43457;SDS011;29046;54.184;18.680;2023-04-29T08:23:37;16.52;;;9.30;;
43457;SDS011;29046;54.184;18.680;2023-04-29T08:26:05;16.90;;;9.20;;
43457;SDS011;29046;54.184;18.680;2023-04-29T08:28:33;13.90;;;8.88;;
43457;SDS011;29046;54.184;18.680;2023-04-29T08:31:00;17.60;;;9.02;;
43457;SDS011;29046;54.184;18.680;2023-04-29T08:33:28;13.70;;;8.63;;
43457;SDS011;29046;54.184;18.680;2023-04-29T08:35:57;19.05;;;9.63;;
43457;SDS011;29046;54.184;18.680;2023-04-29T08:38:25;15.05;;;9.07;;
43457;SDS011;29046;54.184;18.680;2023-04-29T08:40:54;14.68;;;9.10;;
43457;SDS011;29046;54.184;18.680;2023-04-29T08:43:21;16.50;;;8.73;;
43457;SDS011;29046;54.184;18.680;2023-04-29T08:45:49;16.40;;;9.55;;
43457;SDS011;29046;54.184;18.680;2023-04-29T08:48:16;14.85;;;9.05;;
43457;SDS011;29046;54.184;18.680;2023-04-29T08:50:44;15.95;;;8.82;;
43457;SDS011;29046;54.184;18.680;2023-04-29T08:53:12;19.13;;;9.68;;
43457;SDS011;29046;54.184;18.680;2023-04-29T08:55:44;14.23;;;9.32;;
43457;SDS011;29046;54.184;18.680;2023-04-29T08:58:12;15.32;;;9.52;;
43457;SDS011;29046;54.184;18.680;2023-04-29T09:00:43;17.67;;;9.60;;
43457;SDS011;29046;54.184;18.680;2023-04-29T09:03:13;14.48;;;8.90;;
43457;SDS011;29046;54.184;18.680;2023-04-29T09:05:46;15.00;;;8.73;;
43457;SDS011;29046;54.184;18.680;2023-04-29T09:08:15;16.67;;;9.18;;
43457;SDS011;29046;54.184;18.680;2023-04-29T09:10:43;17.33;;;9.43;;
43457;SDS011;29046;54.184;18.680;2023-04-29T09:13:32;16.33;;;9.80;;
43457;SDS011;29046;54.184;18.680;2023-04-29T09:15:59;12.80;;;8.40;;
43457;SDS011;29046;54.184;18.680;2023-04-29T09:18:42;16.50;;;9.52;;
43457;SDS011;29046;54.184;18.680;2023-04-29T09:23:40;13.73;;;9.30;;
43457;SDS011;29046;54.184;18.680;2023-04-29T09:26:08;22.10;;;10.30;;
43457;SDS011;29046;54.184;18.680;2023-04-29T09:28:36;17.67;;;7.70;;
43457;SDS011;29046;54.184;18.680;2023-04-29T09:31:05;17.27;;;8.95;;
43457;SDS011;29046;54.184;18.680;2023-04-29T09:33:52;13.75;;;9.02;;
43457;SDS011;29046;54.184;18.680;2023-04-29T09:36:40;13.95;;;9.48;;
43457;SDS011;29046;54.184;18.680;2023-04-29T09:39:08;12.35;;;8.32;;
43457;SDS011;29046;54.184;18.680;2023-04-29T09:41:39;16.45;;;8.80;;
43457;SDS011;29046;54.184;18.680;2023-04-29T09:44:08;16.63;;;9.02;;
43457;SDS011;29046;54.184;18.680;2023-04-29T09:46:36;15.25;;;8.95;;
43457;SDS011;29046;54.184;18.680;2023-04-29T09:49:05;18.55;;;10.13;;
43457;SDS011;29046;54.184;18.680;2023-04-29T09:51:56;16.98;;;9.57;;
43457;SDS011;29046;54.184;18.680;2023-04-29T09:54:25;12.75;;;8.65;;
43457;SDS011;29046;54.184;18.680;2023-04-29T09:57:00;16.23;;;8.57;;
43457;SDS011;29046;54.184;18.680;2023-04-29T09:59:27;15.88;;;9.25;;
43457;SDS011;29046;54.184;18.680;2023-04-29T10:01:57;15.93;;;9.75;;
43457;SDS011;29046;54.184;18.680;2023-04-29T10:04:25;21.95;;;9.40;;
43457;SDS011;29046;54.184;18.680;2023-04-29T10:06:53;18.48;;;8.95;;
43457;SDS011;29046;54.184;18.680;2023-04-29T10:09:22;15.73;;;8.35;;
43457;SDS011;29046;54.184;18.680;2023-04-29T10:11:50;14.07;;;8.35;;
43457;SDS011;29046;54.184;18.680;2023-04-29T10:14:18;16.70;;;8.77;;
43457;SDS011;29046;54.184;18.680;2023-04-29T10:16:48;16.90;;;9.02;;
43457;SDS011;29046;54.184;18.680;2023-04-29T10:19:34;18.20;;;8.88;;
43457;SDS011;29046;54.184;18.680;2023-04-29T10:22:13;18.95;;;9.88;;
43457;SDS011;29046;54.184;18.680;2023-04-29T10:24:42;15.43;;;9.27;;
43457;SDS011;29046;54.184;18.680;2023-04-29T10:27:10;18.95;;;10.10;;
43457;SDS011;29046;54.184;18.680;2023-04-29T10:29:38;21.52;;;9.68;;
43457;SDS011;29046;54.184;18.680;2023-04-29T10:32:07;16.48;;;10.07;;
43457;SDS011;29046;54.184;18.680;2023-04-29T10:34:38;16.52;;;10.48;;
43457;SDS011;29046;54.184;18.680;2023-04-29T10:37:09;15.55;;;10.23;;
43457;SDS011;29046;54.184;18.680;2023-04-29T10:39:46;14.82;;;9.80;;
43457;SDS011;29046;54.184;18.680;2023-04-29T10:42:30;16.65;;;9.90;;
43457;SDS011;29046;54.184;18.680;2023-04-29T10:45:15;16.83;;;10.25;;
43457;SDS011;29046;54.184;18.680;2023-04-29T10:48:26;13.90;;;10.38;;
43457;SDS011;29046;54.184;18.680;2023-04-29T10:53:08;17.25;;;9.95;;
43457;SDS011;29046;54.184;18.680;2023-04-29T10:55:36;12.73;;;7.80;;
43457;SDS011;29046;54.184;18.680;2023-04-29T10:58:04;12.88;;;8.13;;
43457;SDS011;29046;54.184;18.680;2023-04-29T11:00:33;9.38;;;5.38;;
43457;SDS011;29046;54.184;18.680;2023-04-29T11:03:01;8.93;;;5.43;;
43457;SDS011;29046;54.184;18.680;2023-04-29T11:05:32;9.98;;;4.93;;
43457;SDS011;29046;54.184;18.680;2023-04-29T11:08:11;7.63;;;5.00;;
43457;SDS011;29046;54.184;18.680;2023-04-29T11:10:42;10.13;;;4.45;;
43457;SDS011;29046;54.184;18.680;2023-04-29T11:13:28;9.63;;;4.80;;
43457;SDS011;29046;54.184;18.680;2023-04-29T11:16:09;10.25;;;4.93;;
43457;SDS011;29046;54.184;18.680;2023-04-29T11:21:29;8.90;;;4.53;;
43457;SDS011;29046;54.184;18.680;2023-04-29T11:23:58;9.20;;;4.80;;
43457;SDS011;29046;54.184;18.680;2023-04-29T11:26:27;10.05;;;4.20;;
43457;SDS011;29046;54.184;18.680;2023-04-29T11:28:55;10.00;;;5.78;;
43457;SDS011;29046;54.184;18.680;2023-04-29T11:31:29;7.60;;;4.38;;
43457;SDS011;29046;54.184;18.680;2023-04-29T11:33:57;9.95;;;5.47;;
43457;SDS011;29046;54.184;18.680;2023-04-29T11:36:25;9.70;;;4.88;;
43457;SDS011;29046;54.184;18.680;2023-04-29T11:38:53;8.98;;;4.95;;
43457;SDS011;29046;54.184;18.680;2023-04-29T11:41:21;11.07;;;5.07;;
43457;SDS011;29046;54.184;18.680;2023-04-29T11:43:56;11.07;;;4.45;;
43457;SDS011;29046;54.184;18.680;2023-04-29T11:46:23;11.65;;;4.93;;
43457;SDS011;29046;54.184;18.680;2023-04-29T11:48:56;13.65;;;5.68;;
43457;SDS011;29046;54.184;18.680;2023-04-29T11:51:25;9.85;;;5.03;;
43457;SDS011;29046;54.184;18.680;2023-04-29T11:53:53;10.68;;;6.10;;
43457;SDS011;29046;54.184;18.680;2023-04-29T11:56:21;11.02;;;5.78;;
43457;SDS011;29046;54.184;18.680;2023-04-29T11:58:55;8.68;;;5.30;;
43457;SDS011;29046;54.184;18.680;2023-04-29T12:01:24;10.90;;;5.18;;
43457;SDS011;29046;54.184;18.680;2023-04-29T12:03:56;10.77;;;4.70;;
43457;SDS011;29046;54.184;18.680;2023-04-29T12:06:28;9.68;;;4.90;;
43457;SDS011;29046;54.184;18.680;2023-04-29T12:08:59;9.18;;;5.40;;
43457;SDS011;29046;54.184;18.680;2023-04-29T12:11:26;8.57;;;5.32;;
43457;SDS011;29046;54.184;18.680;2023-04-29T12:13:55;9.82;;;6.32;;
43457;SDS011;29046;54.184;18.680;2023-04-29T12:16:22;11.15;;;6.60;;
43457;SDS011;29046;54.184;18.680;2023-04-29T12:18:51;12.45;;;6.47;;
43457;SDS011;29046;54.184;18.680;2023-04-29T12:21:20;10.77;;;5.85;;
43457;SDS011;29046;54.184;18.680;2023-04-29T12:23:47;11.15;;;6.30;;
43457;SDS011;29046;54.184;18.680;2023-04-29T12:26:17;12.80;;;5.80;;
43457;SDS011;29046;54.184;18.680;2023-04-29T12:28:47;8.40;;;5.32;;
43457;SDS011;29046;54.184;18.680;2023-04-29T12:31:19;12.13;;;6.43;;
43457;SDS011;29046;54.184;18.680;2023-04-29T12:33:46;11.85;;;6.60;;
43457;SDS011;29046;54.184;18.680;2023-04-29T12:36:17;18.48;;;6.40;;
43457;SDS011;29046;54.184;18.680;2023-04-29T12:38:46;12.35;;;6.72;;
43457;SDS011;29046;54.184;18.680;2023-04-29T12:41:14;14.05;;;6.35;;
43457;SDS011;29046;54.184;18.680;2023-04-29T12:43:42;11.07;;;6.60;;
43457;SDS011;29046;54.184;18.680;2023-04-29T12:46:10;10.38;;;6.10;;
43457;SDS011;29046;54.184;18.680;2023-04-29T12:48:39;12.90;;;6.85;;
43457;SDS011;29046;54.184;18.680;2023-04-29T12:51:08;17.73;;;7.10;;
43457;SDS011;29046;54.184;18.680;2023-04-29T12:53:36;10.20;;;6.50;;
43457;SDS011;29046;54.184;18.680;2023-04-29T12:56:04;12.32;;;7.18;;
43457;SDS011;29046;54.184;18.680;2023-04-29T12:58:32;14.30;;;7.15;;
43457;SDS011;29046;54.184;18.680;2023-04-29T13:01:00;12.98;;;7.53;;
43457;SDS011;29046;54.184;18.680;2023-04-29T13:03:27;11.32;;;7.28;;
43457;SDS011;29046;54.184;18.680;2023-04-29T13:05:56;13.40;;;7.18;;
43457;SDS011;29046;54.184;18.680;2023-04-29T13:08:24;13.55;;;7.35;;
43457;SDS011;29046;54.184;18.680;2023-04-29T13:10:52;14.55;;;7.53;;
43457;SDS011;29046;54.184;18.680;2023-04-29T13:13:20;15.48;;;8.15;;
43457;SDS011;29046;54.184;18.680;2023-04-29T13:15:47;12.77;;;6.70;;
43457;SDS011;29046;54.184;18.680;2023-04-29T13:18:15;13.57;;;8.30;;
43457;SDS011;29046;54.184;18.680;2023-04-29T13:20:42;21.23;;;8.27;;
43457;SDS011;29046;54.184;18.680;2023-04-29T13:23:10;15.27;;;8.48;;
43457;SDS011;29046;54.184;18.680;2023-04-29T13:25:38;10.73;;;7.47;;
43457;SDS011;29046;54.184;18.680;2023-04-29T13:28:06;11.98;;;7.32;;
43457;SDS011;29046;54.184;18.680;2023-04-29T13:30:33;17.05;;;8.48;;
43457;SDS011;29046;54.184;18.680;2023-04-29T13:33:01;15.75;;;8.32;;
43457;SDS011;29046;54.184;18.680;2023-04-29T13:35:37;12.95;;;8.60;;
43457;SDS011;29046;54.184;18.680;2023-04-29T13:38:07;18.13;;;8.98;;
43457;SDS011;29046;54.184;18.680;2023-04-29T13:40:34;19.27;;;7.95;;
43457;SDS011;29046;54.184;18.680;2023-04-29T13:43:11;20.67;;;8.90;;
43457;SDS011;29046;54.184;18.680;2023-04-29T13:45:48;13.90;;;7.38;;
43457;SDS011;29046;54.184;18.680;2023-04-29T13:48:18;13.10;;;8.18;;
43457;SDS011;29046;54.184;18.680;2023-04-29T13:50:51;11.85;;;7.57;;
43457;SDS011;29046;54.184;18.680;2023-04-29T13:53:21;18.75;;;9.43;;
43457;SDS011;29046;54.184;18.680;2023-04-29T13:56:09;16.27;;;9.05;;
43457;SDS011;29046;54.184;18.680;2023-04-29T13:58:40;15.57;;;8.68;;
43457;SDS011;29046;54.184;18.680;2023-04-29T14:01:27;16.05;;;8.85;;
43457;SDS011;29046;54.184;18.680;2023-04-29T14:03:58;13.27;;;9.20;;
43457;SDS011;29046;54.184;18.680;2023-04-29T14:06:26;16.50;;;9.10;;
43457;SDS011;29046;54.184;18.680;2023-04-29T14:08:54;18.52;;;9.40;;
43457;SDS011;29046;54.184;18.680;2023-04-29T14:11:22;14.77;;;8.93;;
43457;SDS011;29046;54.184;18.680;2023-04-29T14:13:50;14.75;;;9.48;;
43457;SDS011;29046;54.184;18.680;2023-04-29T14:16:17;15.20;;;9.02;;
43457;SDS011;29046;54.184;18.680;2023-04-29T14:18:44;16.10;;;9.70;;
43457;SDS011;29046;54.184;18.680;2023-04-29T14:21:12;13.43;;;8.73;;
43457;SDS011;29046;54.184;18.680;2023-04-29T14:23:40;14.55;;;8.55;;
43457;SDS011;29046;54.184;18.680;2023-04-29T14:26:07;21.05;;;9.45;;
43457;SDS011;29046;54.184;18.680;2023-04-29T14:28:53;18.27;;;8.57;;
43457;SDS011;29046;54.184;18.680;2023-04-29T14:31:29;18.70;;;9.97;;
43457;SDS011;29046;54.184;18.680;2023-04-29T14:33:57;13.70;;;8.63;;
43457;SDS011;29046;54.184;18.680;2023-04-29T14:36:24;14.73;;;8.70;;
43457;SDS011;29046;54.184;18.680;2023-04-29T14:38:52;12.98;;;9.27;;
43457;SDS011;29046;54.184;18.680;2023-04-29T14:41:19;18.55;;;8.73;;
43457;SDS011;29046;54.184;18.680;2023-04-29T14:43:47;14.98;;;8.85;;
43457;SDS011;29046;54.184;18.680;2023-04-29T14:46:15;12.85;;;8.25;;
43457;SDS011;29046;54.184;18.680;2023-04-29T14:48:42;16.00;;;8.98;;
43457;SDS011;29046;54.184;18.680;2023-04-29T14:51:10;16.73;;;9.90;;